BIENTÔT MET'MAP
version 2.0 !

Prévue avant fin octobre,
la nouvelle version sera
plus belle, plus complète
et hébergée sur un serveur
3 fois plus puissant...
et toujours gratuite !


Pas compatible ?
Essayez la version Mobile !

SE CONNECTER : | S'inscrire | Disclaimer | Découvrir Orbifly |
Code OACI :
LŽgende : VFR VFR Marginal IFR IFR Intensif IFR TrŽs Intensif
Visi :
Plafond :
>= 8 km
>= 3000ft
5 ˆ 8 km
1000 ˆ 3000 ft
1500m ˆ 5 km
500 ˆ 1000 ft
800 ˆ 1500m
200 ˆ 500 ft
< 800m
< 200 ft

METAR - EPGD Gdansk - 17 Sep 2019 07:12 UTC - Data Source NOAA   



- Altitude de l'aérodrome : 489 ft
- Code IATA : GDN
- Pas de NOTAMs connus.


EPGD - Gdansk

Dernier METAR connu : 2015/08/11 08:00 EPGD 110800Z 11005KT 080V170 CAVOK 24/17 Q1018
TAF TAF EPGD
Valide du 17 à 00h jusqu'au 18 à 00h UTC


162330Z 1700/1724 27013KT 9999 SCT040
TEMPO 1700/1707 28018G28KT 4500 SHRA BKN020CB
TEMPO 1707/1724 28020G35KT 3000 SHRA SCT012 BKN016CB
PROB40
TEMPO 1710/1724 30020G45KT 1200 TSRA BKN007 BKN013CB

Source NOAA


MET'MAP, la Météo Aéronautique d'un coup d'oeil ! - Copyright ORBIFLY Décembre 2007

Développement & Programmation : Alexandra Zaïnal
Co-Développement : Marc-Olivier Méhu
Soutien technique & logistique : Manuel Goepfert
Conception & Financement : Baudouin d'Aumeries